• Join FlightAware (Why Join?)
  • Login
  • US Flag 
07:22AM EDT


 

Airport Tracker/Info


-or-


 

Live Flight TrackerFlight Track Log ✈ PDT4328 ✈ 23-May-2013 ✈ KCHA - KCLT

Flight Track Log - Related Links

Times and Time Zones

All times are in EDT time to prevent confusion due to time zone crossing. See the PDT4328 flight status page for this flight to view local times or setup timezone preferences in your user account.

Time Position Orientation Groundspeed Altitude Reporting Facility
EDT Latitude Longitude Course Direction KTS MPH feet Rate Location/Type
12:37PM 35.1701 -84.9733 55° Northeast  Level FlightAware Approximate
12:38PM 35.2066 -84.9190 47° Northeast  Level FlightAware Approximate
12:39PM 35.2450 -84.8664 50° Northeast  Level FlightAware Approximate
12:39PM 35.0069 -85.0506 52° Northeast 205 236 7,500  Level Atlanta Center
12:40PM 35.2822 -84.8124 50° Northeast  Level FlightAware Approximate
12:40PM 35.0469 -85.0003 46° Northeast 212 244 8,500  Level Atlanta Center
12:41PM 35.3194 -84.7585 50° Northeast  Level FlightAware Approximate
12:41PM 35.0869 -84.9475 47° Northeast 212 244 9,500  Level Atlanta Center
12:42PM 35.3565 -84.7044 50° Northeast  Level FlightAware Approximate
12:43PM 35.3936 -84.6504 50° Northeast  Level FlightAware Approximate
12:43PM 35.2006 -84.8039 46° Northeast 262 302 10,000  Level Atlanta Center
12:44PM 35.4301 -84.5957 52° Northeast  Level FlightAware Approximate
12:44PM 35.2531 -84.7356 47° Northeast 267 307 10,400  Level Atlanta Center
12:46PM 35.3304 -84.6947 23° Northeast  Level FlightAware Approximate
12:46PM 35.3497 -84.6117 23° Northeast 257 296 11,800  Level Atlanta Center
12:47PM 35.3981 -84.5508 46° Northeast 252 290 12,500 660 Climbing Atlanta Center
12:48PM 35.4461 -84.4900 46° Northeast 247 284 13,200 780 Climbing Atlanta Center
12:49PM 35.4922 -84.4289 47° Northeast 247 284 14,100 900 Climbing Atlanta Center
12:50PM 35.5383 -84.3706 46° Northeast 242 278 15,000 900 Climbing Atlanta Center
12:51PM 35.5825 -84.3119 47° Northeast 242 278 15,900 900 Climbing Atlanta Center
12:52PM 35.6264 -84.2558 46° Northeast 237 273 16,800 480 Climbing Atlanta Center
12:53PM 35.6744 -84.1972 45° Northeast 237 273 16,900 60 Climbing Atlanta Center
12:54PM 35.7244 -84.1283 48° Northeast 242 278 17,000  Climbing Atlanta Center
12:55PM 35.7767 -84.0617 46° Northeast 252 290 17,000 -60 Level Atlanta Center
12:56PM 35.8308 -83.9928 46° Northeast 264 304 16,900 -60 Descending Atlanta Center
12:57PM 35.8850 -83.9208 47° Northeast 271 312 16,900  Level Atlanta Center
12:58PM 35.9017 -83.8261 78° East 271 312 17,000  Climbing Atlanta Center
12:59PM 35.8994 -83.7261 92° East 271 312 17,000 -60 Level Atlanta Center
01:00PM 35.8992 -83.6286 90° East 278 320 16,900 -60 Descending Atlanta Center
01:01PM 35.8967 -83.5286 92° East 278 320 16,900 -120 Level Atlanta Center
01:02PM 35.8942 -83.4314 92° East 283 326 16,700 -600 Descending Atlanta Center
01:03PM 35.8914 -83.3339 92° East 288 331 15,700 -1,020 Descending Atlanta Center
01:04PM 35.8889 -83.2364 92° East 288 331 14,700 -1,020 Descending Atlanta Center
01:05PM 35.8881 -83.1442 91° East 283 326 13,700 -780 Descending Atlanta Center
01:06PM 35.8856 -83.0672 92° East 247 284 13,200 -360 Descending Atlanta Center
01:07PM 35.8847 -82.9931 91° East 223 257 13,000 -180 Descending Atlanta Center
01:08PM 35.8842 -82.9083 90° East 233 268 12,900 -60 Descending Atlanta Center
01:09PM 35.8811 -82.8239 93° East 239 275 12,900  Level Atlanta Center
01:10PM 35.8783 -82.7394 92° East 239 275 12,900  Level Atlanta Center
01:11PM 35.8753 -82.6575 93° East 239 275 12,900  Level Atlanta Center
01:12PM 35.8744 -82.5756 91° East 234 269 13,000 -240 Climbing Atlanta Center
01:13PM 35.8711 -82.4936 93° East 234 269 12,500 -660 Descending Atlanta Center
01:14PM 35.8703 -82.4117 91° East 234 269 11,700 -840 Descending Atlanta Center
01:15PM 35.8669 -82.3322 93° East 234 269 10,900 -420 Descending Atlanta Center
01:16PM 35.8658 -82.2503 91° East 234 269 10,900 -300 Level Atlanta Center
01:17PM 35.8625 -82.1683 93° East 234 269 10,400 -720 Descending Atlanta Center
01:18PM 35.8614 -82.0889 91° East 234 269 9,500 -780 Descending Atlanta Center
01:19PM 35.8581 -82.0094 93° East 234 269 8,900 -300 Descending Atlanta Center
01:20PM 35.8400 -81.9433 109° East 217 250 8,900  Level Atlanta Center
01:21PM 35.7972 -81.8806 130° Southeast 211 243 9,000  Climbing Atlanta Center
01:22PM 35.7586 -81.8200 128° Southeast 216 249 9,000 -60 Level Atlanta Center
01:23PM 35.7200 -81.7647 131° Southeast 222 255 8,900  Descending Atlanta Center
01:24PM 35.6750 -81.6894 126° Southeast 223 257 9,000  Climbing Atlanta Center
01:25PM 35.6428 -81.6392 128° Southeast 229 264 9,000  Level Atlanta Center
01:26PM 35.6097 -81.5636 118° Southeast 242 278 9,000 -60 Level Atlanta Center
01:27PM 35.5586 -81.5114 140° Southeast 242 278 8,900 -600 Descending Atlanta Center
01:28PM 35.5094 -81.4467 133° Southeast 249 287 7,900 -960 Descending Atlanta Center
01:29PM 35.5014 -81.3653 97° East 239 275 7,000 -720 Descending Atlanta Center
01:29PM 35.5114 -81.3472 56° Northeast 255 293 7,000  Level Atlanta Center
01:30PM 35.5308 -81.2878 68° East 235 270 7,000  Level Atlanta Center
01:31PM 35.5411 -81.2694 55° Northeast 249 287 7,000  Level Atlanta Center
01:31PM 35.5458 -81.2031 85° East 249 287 7,000  Level Atlanta Center
01:32PM 35.5494 -81.1825 78° East 253 291 7,000 -780 Level Atlanta Center
01:33PM 35.5556 -81.0931 85° East 250 288 6,000 -1,020 Descending Atlanta Center
01:34PM 35.5042 -81.0361 138° Southeast 241 277 5,000 -480 Descending Atlanta Center
01:35PM 35.4447 -80.9900 148° Southeast 238 274 5,000  Level Atlanta Center